createdAt,value
2017-04-20T00:01:17.367Z,67.80
2017-04-20T00:02:17.496Z,67.20
2017-04-20T00:03:17.544Z,67.40
2017-04-20T00:04:17.594Z,67.20
2017-04-20T00:05:18.430Z,67.20
2017-04-20T00:06:18.490Z,67.50
2017-04-20T00:07:18.665Z,67.30
2017-04-20T00:08:18.722Z,67.20
2017-04-20T00:09:18.983Z,67.50
2017-04-20T00:10:19.061Z,67.60
2017-04-20T00:11:20.207Z,67.50
2017-04-20T00:12:20.407Z,67.70
2017-04-20T00:13:20.519Z,67.80
2017-04-20T00:14:20.586Z,67.60
2017-04-20T00:15:20.915Z,67.60
2017-04-20T00:16:21.001Z,67.50
2017-04-20T00:17:21.012Z,67.50
2017-04-20T00:18:21.277Z,67.70
2017-04-20T00:19:21.334Z,68.40
2017-04-20T00:20:22.220Z,67.80
2017-04-20T00:21:22.344Z,67.70
2017-04-20T00:22:22.430Z,67.80
2017-04-20T00:23:22.567Z,67.90
2017-04-20T00:24:23.357Z,68.10
2017-04-20T00:25:23.511Z,68.10
2017-04-20T00:26:24.345Z,68.80
2017-04-20T00:27:24.472Z,68.20
2017-04-20T00:28:25.107Z,68.30
2017-04-20T00:29:25.126Z,68.20
2017-04-20T00:30:25.945Z,68.10
2017-04-20T00:31:26.215Z,68.20
2017-04-20T00:32:26.504Z,68.20
2017-04-20T00:33:26.593Z,68.40
2017-04-20T00:34:27.489Z,68.50
2017-04-20T00:35:27.725Z,68.60
2017-04-20T00:36:27.931Z,68.60
2017-04-20T00:37:28.231Z,68.60
2017-04-20T00:38:28.375Z,68.90
2017-04-20T00:39:29.254Z,68.80
2017-04-20T00:40:29.330Z,68.70
2017-04-20T00:41:29.458Z,68.80
2017-04-20T00:42:29.576Z,68.90
2017-04-20T00:43:29.631Z,68.80
2017-04-20T00:44:29.733Z,68.70
2017-04-20T00:45:30.565Z,68.80
2017-04-20T00:46:30.682Z,69.40
2017-04-20T00:47:30.750Z,68.90
2017-04-20T00:48:30.806Z,68.70
2017-04-20T00:49:30.937Z,68.60
2017-04-20T00:50:31.081Z,68.70
2017-04-20T00:51:31.188Z,68.80
2017-04-20T00:52:31.821Z,68.80
2017-04-20T00:53:31.903Z,68.90
2017-04-20T00:54:32.664Z,68.90
2017-04-20T00:55:33.214Z,68.90
2017-04-20T00:56:34.038Z,69.00
2017-04-20T00:57:34.070Z,69.00
2017-04-20T00:58:34.167Z,69.10
2017-04-20T00:59:35.186Z,69.00
2017-04-20T01:00:35.950Z,69.00
2017-04-20T01:01:36.059Z,68.90
2017-04-20T01:02:36.952Z,68.80
2017-04-20T01:03:37.902Z,69.10
2017-04-20T01:04:38.000Z,69.30
2017-04-20T01:05:38.057Z,69.20
2017-04-20T01:06:38.124Z,69.30
2017-04-20T01:07:38.445Z,69.10
2017-04-20T01:08:39.074Z,69.30
2017-04-20T01:09:39.143Z,69.30
2017-04-20T01:10:39.256Z,69.50
2017-04-20T01:11:39.304Z,69.80
2017-04-20T01:12:39.406Z,69.80
2017-04-20T01:14:39.874Z,69.80
2017-04-20T01:15:39.926Z,69.80
2017-04-20T01:16:39.984Z,69.80
2017-04-20T01:17:40.830Z,70.50
2017-04-20T01:18:40.931Z,69.80
2017-04-20T01:19:41.021Z,69.80
2017-04-20T01:20:41.126Z,69.80
2017-04-20T01:21:41.352Z,69.80
2017-04-20T01:22:41.494Z,70.20
2017-04-20T01:23:41.608Z,69.80
2017-04-20T01:24:41.707Z,69.80
2017-04-20T01:25:42.029Z,69.70
2017-04-20T01:26:42.122Z,69.70
2017-04-20T01:27:42.237Z,69.80
2017-04-20T01:28:42.293Z,69.80
2017-04-20T01:29:42.570Z,69.80
2017-04-20T01:30:42.688Z,69.70
2017-04-20T01:31:42.824Z,69.70
2017-04-20T01:32:42.887Z,69.70
2017-04-20T01:33:43.025Z,69.80
2017-04-20T01:34:43.063Z,69.70
2017-04-20T01:35:43.109Z,69.80
2017-04-20T01:36:43.169Z,69.80
2017-04-20T01:37:43.947Z,69.80
2017-04-20T01:38:44.055Z,69.70
2017-04-20T01:39:44.137Z,69.80
2017-04-20T01:40:44.200Z,69.60
2017-04-20T01:41:44.228Z,69.70
2017-04-20T01:42:44.285Z,70.00
2017-04-20T01:43:44.393Z,70.20
2017-04-20T01:44:44.456Z,70.30
2017-04-20T01:45:44.505Z,70.20
2017-04-20T01:46:44.579Z,70.10
2017-04-20T01:47:45.449Z,70.30
2017-04-20T01:48:45.477Z,70.10
2017-04-20T01:49:45.698Z,70.30
2017-04-20T01:50:46.077Z,70.40
2017-04-20T01:51:46.547Z,70.70
2017-04-20T01:52:46.615Z,70.70
2017-04-20T01:53:46.638Z,70.50
2017-04-20T01:54:46.869Z,70.80
2017-04-20T01:55:47.044Z,70.80
2017-04-20T01:56:47.133Z,70.90
2017-04-20T01:57:48.097Z,70.90
2017-04-20T01:58:49.018Z,70.80
2017-04-20T01:59:49.144Z,70.70
2017-04-20T02:00:50.013Z,70.60
2017-04-20T02:01:50.130Z,70.60
2017-04-20T02:02:51.689Z,70.60
2017-04-20T02:03:52.522Z,70.40
2017-04-20T02:04:52.758Z,70.40
2017-04-20T02:05:53.452Z,70.40
2017-04-20T02:06:54.347Z,70.40
2017-04-20T02:07:54.480Z,70.60
2017-04-20T02:08:55.301Z,70.50
2017-04-20T02:09:55.529Z,70.30
2017-04-20T02:10:59.168Z,70.50
2017-04-20T02:11:59.249Z,70.80
2017-04-20T02:12:59.290Z,71.00
2017-04-20T02:13:59.352Z,70.90
2017-04-20T02:14:59.433Z,70.90
2017-04-20T02:15:59.566Z,70.90
2017-04-20T02:16:59.622Z,70.90
2017-04-20T02:17:59.698Z,70.70
2017-04-20T02:19:00.398Z,70.70
2017-04-20T02:20:00.494Z,70.90
2017-04-20T02:21:00.586Z,71.00
2017-04-20T02:22:02.037Z,70.80
2017-04-20T02:23:02.082Z,71.00
2017-04-20T02:24:02.898Z,70.90
2017-04-20T02:25:02.919Z,71.10
2017-04-20T02:26:02.989Z,71.10
2017-04-20T02:27:03.097Z,71.20
2017-04-20T02:28:04.123Z,71.10
2017-04-20T02:29:04.731Z,71.10
2017-04-20T02:30:04.789Z,71.00
2017-04-20T02:31:05.618Z,71.10
2017-04-20T02:32:05.681Z,71.20
2017-04-20T02:33:05.737Z,71.10
2017-04-20T02:34:05.860Z,71.00
2017-04-20T02:35:06.746Z,71.10
2017-04-20T02:36:06.946Z,70.90
2017-04-20T02:37:07.140Z,70.80
2017-04-20T02:38:07.222Z,70.80
2017-04-20T02:39:07.369Z,70.50
2017-04-20T02:40:08.301Z,70.80
2017-04-20T02:41:09.234Z,70.80
2017-04-20T02:42:09.336Z,70.90
2017-04-20T02:43:09.531Z,70.80
2017-04-20T02:44:10.266Z,70.80
2017-04-20T02:45:10.996Z,70.90
2017-04-20T02:46:11.053Z,70.90
2017-04-20T02:47:11.113Z,71.10
2017-04-20T02:48:11.240Z,71.00
2017-04-20T02:49:11.881Z,71.70
2017-04-20T02:50:11.910Z,70.80
2017-04-20T02:51:12.699Z,70.50
2017-04-20T02:52:12.824Z,70.40
2017-04-20T02:53:13.469Z,70.50
2017-04-20T02:54:13.558Z,71.20
2017-04-20T02:55:13.628Z,71.20
2017-04-20T02:56:14.353Z,71.10
2017-04-20T02:57:14.516Z,70.70
2017-04-20T02:58:14.577Z,70.70
2017-04-20T02:59:14.728Z,70.90
2017-04-20T03:00:15.379Z,70.90
2017-04-20T03:01:16.108Z,70.80
2017-04-20T03:02:16.817Z,70.70
2017-04-20T03:03:16.925Z,70.80
2017-04-20T03:04:17.023Z,70.80
2017-04-20T03:05:17.322Z,71.00
2017-04-20T03:06:17.981Z,69.90
2017-04-20T03:07:18.082Z,70.40
2017-04-20T03:08:18.145Z,70.70
2017-04-20T03:09:19.132Z,70.90
2017-04-20T03:10:19.234Z,70.70
2017-04-20T03:11:19.506Z,71.00
2017-04-20T03:12:19.603Z,70.60
2017-04-20T03:13:19.743Z,70.60
2017-04-20T03:14:19.901Z,71.00
2017-04-20T03:15:19.992Z,71.10
2017-04-20T03:16:20.042Z,71.00
2017-04-20T03:17:20.122Z,71.40
2017-04-20T03:18:20.203Z,70.30
2017-04-20T03:19:20.306Z,70.00
2017-04-20T03:20:20.665Z,69.70
2017-04-20T03:21:20.858Z,70.30
2017-04-20T03:22:21.030Z,70.50
2017-04-20T03:23:21.801Z,70.50
2017-04-20T03:24:21.932Z,70.80
2017-04-20T03:25:22.116Z,71.50
2017-04-20T03:26:22.174Z,70.70
2017-04-20T03:27:23.550Z,70.60
2017-04-20T03:28:23.693Z,70.50
2017-04-20T03:29:24.077Z,70.30
2017-04-20T03:30:24.858Z,70.00
2017-04-20T03:31:25.550Z,69.70
2017-04-20T03:32:25.626Z,69.80
2017-04-20T03:33:26.517Z,70.40
2017-04-20T03:34:26.504Z,70.40
2017-04-20T03:35:27.325Z,70.20
2017-04-20T03:36:27.465Z,70.70
2017-04-20T03:37:28.451Z,70.70
2017-04-20T03:38:28.538Z,71.00
2017-04-20T03:39:28.726Z,71.00
2017-04-20T03:40:29.482Z,70.90
2017-04-20T03:41:29.674Z,70.80
2017-04-20T03:42:29.709Z,70.60
2017-04-20T03:43:30.509Z,70.20
2017-04-20T03:44:30.703Z,70.20
2017-04-20T03:45:31.414Z,70.50
2017-04-20T03:46:32.810Z,70.70
2017-04-20T03:47:32.878Z,70.90
2017-04-20T03:48:32.933Z,70.60
2017-04-20T03:49:33.671Z,70.70
2017-04-20T03:50:33.840Z,70.70
2017-04-20T03:51:33.905Z,70.80
2017-04-20T03:52:34.705Z,70.80
2017-04-20T03:53:34.916Z,71.00
2017-04-20T03:54:35.069Z,71.10
2017-04-20T03:55:36.027Z,71.10
2017-04-20T03:56:36.682Z,70.80
2017-04-20T03:57:36.754Z,70.70
2017-04-20T03:58:36.883Z,70.50
2017-04-20T03:59:38.337Z,70.60
2017-04-20T04:00:38.455Z,70.60
2017-04-20T04:01:38.543Z,70.70
2017-04-20T04:02:40.035Z,70.70
2017-04-20T04:03:40.857Z,71.00
2017-04-20T04:04:41.037Z,70.40
2017-04-20T04:05:41.089Z,69.70
2017-04-20T04:06:41.115Z,69.70
2017-04-20T04:07:41.327Z,70.70
2017-04-20T04:08:42.052Z,70.70
2017-04-20T04:09:42.257Z,70.60
2017-04-20T04:10:42.387Z,70.00
2017-04-20T04:11:42.497Z,69.60
2017-04-20T04:12:43.166Z,69.70
2017-04-20T04:13:43.279Z,69.70
2017-04-20T04:14:43.402Z,69.80
2017-04-20T04:15:43.454Z,70.20
2017-04-20T04:16:44.166Z,69.70
2017-04-20T04:17:44.202Z,69.70
2017-04-20T04:18:44.402Z,69.70
2017-04-20T04:19:44.460Z,70.30
2017-04-20T04:20:45.882Z,69.80
2017-04-20T04:21:46.018Z,69.70
2017-04-20T04:22:46.173Z,69.70
2017-04-20T04:23:46.416Z,69.80
2017-04-20T04:24:46.524Z,69.80
2017-04-20T04:25:46.599Z,69.60
2017-04-20T04:26:47.233Z,69.40
2017-04-20T04:27:47.297Z,69.90
2017-04-20T04:28:47.350Z,69.50
2017-04-20T04:29:47.593Z,69.20
2017-04-20T04:30:47.669Z,69.00
2017-04-20T04:31:48.494Z,69.20
2017-04-20T04:32:48.746Z,69.10
2017-04-20T04:33:49.098Z,69.10
2017-04-20T04:34:49.203Z,69.10
2017-04-20T04:35:49.318Z,68.90
2017-04-20T04:36:49.477Z,69.00
2017-04-20T04:37:49.555Z,68.90
2017-04-20T04:38:50.500Z,69.00
2017-04-20T04:39:50.591Z,68.80
2017-04-20T04:40:51.402Z,68.50
2017-04-20T04:41:51.554Z,68.60
2017-04-20T04:42:51.644Z,68.50
2017-04-20T04:43:51.854Z,68.20
2017-04-20T04:44:53.343Z,68.10
2017-04-20T04:45:53.401Z,67.80
2017-04-20T04:46:53.512Z,67.70
2017-04-20T04:47:53.716Z,67.70
2017-04-20T04:48:53.790Z,67.70
2017-04-20T04:49:53.895Z,67.50
2017-04-20T04:50:54.151Z,67.20
2017-04-20T04:51:54.259Z,67.20
2017-04-20T04:52:54.751Z,66.90
2017-04-20T04:53:54.808Z,66.60
2017-04-20T04:54:54.909Z,66.30
2017-04-20T04:55:57.588Z,66.00
2017-04-20T04:56:57.682Z,65.80
2017-04-20T04:57:58.804Z,65.30
2017-04-20T04:58:58.865Z,65.30
2017-04-20T04:59:59.918Z,65.20
2017-04-20T05:00:59.981Z,65.00
2017-04-20T05:02:00.667Z,64.90
2017-04-20T05:03:04.390Z,64.30
2017-04-20T05:04:04.522Z,64.20
2017-04-20T05:05:04.635Z,64.20
2017-04-20T05:06:05.398Z,64.10
2017-04-20T05:07:06.177Z,63.70
2017-04-20T05:08:06.231Z,63.60
2017-04-20T05:09:06.621Z,63.50
2017-04-20T05:10:06.655Z,63.50
2017-04-20T05:11:06.762Z,63.20
2017-04-20T05:12:07.257Z,62.80
2017-04-20T05:13:08.158Z,62.50
2017-04-20T05:14:08.369Z,62.50
2017-04-20T05:15:08.384Z,62.50
2017-04-20T05:16:08.477Z,62.60
2017-04-20T05:17:08.567Z,62.70
2017-04-20T05:18:08.610Z,63.20
2017-04-20T05:19:09.883Z,62.60
2017-04-20T05:20:10.809Z,62.60
2017-04-20T05:21:10.906Z,62.70
2017-04-20T05:22:10.988Z,62.70
2017-04-20T05:23:11.117Z,62.80
2017-04-20T05:24:11.253Z,62.30
2017-04-20T05:25:11.317Z,62.40
2017-04-20T05:26:11.519Z,62.60
2017-04-20T05:27:11.645Z,61.70
2017-04-20T05:28:12.591Z,61.60
2017-04-20T05:29:13.288Z,61.10
2017-04-20T05:30:14.120Z,59.60
2017-04-20T05:31:14.315Z,59.70
2017-04-20T05:32:14.411Z,60.00
2017-04-20T05:33:14.547Z,59.70
2017-04-20T05:34:14.652Z,59.80
2017-04-20T05:35:14.827Z,59.10
2017-04-20T05:36:15.020Z,59.40
2017-04-20T05:37:15.064Z,59.40
2017-04-20T05:38:15.237Z,59.10
2017-04-20T05:39:15.284Z,58.50
2017-04-20T05:40:15.512Z,58.70
2017-04-20T05:41:15.590Z,57.50
2017-04-20T05:42:15.779Z,57.70
2017-04-20T05:43:16.573Z,57.90
2017-04-20T05:44:16.713Z,57.80
2017-04-20T05:45:16.803Z,57.70
2017-04-20T05:46:17.524Z,57.50
2017-04-20T05:47:18.248Z,57.60
2017-04-20T05:48:18.313Z,56.70
2017-04-20T05:49:18.421Z,57.40
2017-04-20T05:50:19.175Z,57.70
2017-04-20T05:51:20.222Z,55.20
2017-04-20T05:52:20.394Z,55.30
2017-04-20T05:53:20.450Z,55.10
2017-04-20T05:54:21.225Z,54.40
2017-04-20T05:55:21.258Z,54.40
2017-04-20T05:56:21.310Z,54.20
2017-04-20T05:57:21.478Z,54.60
2017-04-20T05:58:21.623Z,54.20
2017-04-20T05:59:21.655Z,53.20
2017-04-20T06:00:21.743Z,53.40
2017-04-20T06:01:21.777Z,53.50
2017-04-20T06:02:22.455Z,53.30
2017-04-20T06:03:23.978Z,52.10
2017-04-20T06:04:24.091Z,51.70
2017-04-20T06:05:25.007Z,51.50
2017-04-20T06:06:25.147Z,50.20
2017-04-20T06:07:25.297Z,49.70
2017-04-20T06:08:25.414Z,50.10
2017-04-20T06:09:26.173Z,50.20
2017-04-20T06:10:26.203Z,50.30
2017-04-20T06:11:26.456Z,50.50
2017-04-20T06:12:26.544Z,50.70
2017-04-20T06:13:26.585Z,50.60
2017-04-20T06:14:26.674Z,49.30
2017-04-20T06:15:29.126Z,50.10
2017-04-20T06:16:29.232Z,48.90
2017-04-20T06:17:29.322Z,49.50
2017-04-20T06:18:29.403Z,49.30
2017-04-20T06:19:29.454Z,49.70
2017-04-20T06:20:29.442Z,49.20
2017-04-20T06:21:30.432Z,47.60
2017-04-20T06:22:30.660Z,48.50
2017-04-20T06:23:30.819Z,48.60
2017-04-20T06:24:30.964Z,48.50
2017-04-20T06:25:31.224Z,47.70
2017-04-20T06:26:31.589Z,47.70
2017-04-20T06:27:31.764Z,47.70
2017-04-20T06:28:31.846Z,48.10
2017-04-20T06:29:32.069Z,47.70
2017-04-20T06:30:33.359Z,48.40
2017-04-20T06:31:33.470Z,47.80
2017-04-20T06:32:33.748Z,47.80
2017-04-20T06:33:34.518Z,47.80
2017-04-20T06:34:34.638Z,47.80
2017-04-20T06:35:35.569Z,47.80
2017-04-20T06:36:36.305Z,47.80
2017-04-20T06:37:36.371Z,47.80
2017-04-20T06:38:36.529Z,47.50
2017-04-20T06:39:36.675Z,47.90
2017-04-20T06:40:36.719Z,47.80
2017-04-20T06:41:37.694Z,47.80
2017-04-20T06:42:37.757Z,47.30
2017-04-20T06:43:37.921Z,47.00
2017-04-20T06:44:37.955Z,47.40
2017-04-20T06:45:38.022Z,47.80
2017-04-20T06:46:38.124Z,47.30
2017-04-20T06:47:38.179Z,47.30
2017-04-20T06:48:38.245Z,47.50
2017-04-20T06:49:38.429Z,47.90
2017-04-20T06:50:39.219Z,46.70
2017-04-20T06:51:40.029Z,46.80
2017-04-20T06:52:40.151Z,47.10
2017-04-20T06:53:40.197Z,47.60
2017-04-20T06:54:40.897Z,47.70
2017-04-20T06:55:40.974Z,47.90
2017-04-20T06:56:41.064Z,47.90
2017-04-20T06:57:41.112Z,48.00
2017-04-20T06:58:41.230Z,48.40
2017-04-20T06:59:41.469Z,48.10
2017-04-20T07:00:42.291Z,47.80
2017-04-20T07:01:42.419Z,48.10
2017-04-20T07:02:53.311Z,47.70
2017-04-20T07:03:53.449Z,48.10
2017-04-20T07:04:54.554Z,48.30
2017-04-20T07:05:55.403Z,47.70
2017-04-20T07:06:55.428Z,47.30
2017-04-20T07:07:56.292Z,47.80
2017-04-20T07:08:56.970Z,47.70
2017-04-20T07:09:57.796Z,47.30
2017-04-20T07:10:58.604Z,47.10
2017-04-20T07:11:58.648Z,47.90
2017-04-20T07:12:58.734Z,47.10
2017-04-20T07:13:58.798Z,46.90
2017-04-20T07:14:58.863Z,47.00
2017-04-20T07:15:58.922Z,47.50
2017-04-20T07:16:59.000Z,45.70
2017-04-20T07:17:59.089Z,45.60
2017-04-20T07:18:59.882Z,46.40
2017-04-20T07:20:00.431Z,46.30
2017-04-20T07:21:00.477Z,46.20
2017-04-20T07:22:01.502Z,46.80
2017-04-20T07:23:01.685Z,45.80
2017-04-20T07:24:01.690Z,46.00
2017-04-20T07:25:01.755Z,46.20
2017-04-20T07:26:01.821Z,46.40
2017-04-20T07:27:02.077Z,46.30
2017-04-20T07:28:08.541Z,46.30
2017-04-20T07:29:09.706Z,45.80
2017-04-20T07:30:09.995Z,46.00
2017-04-20T07:31:10.118Z,46.10
2017-04-20T07:32:11.055Z,46.20
2017-04-20T07:33:11.446Z,46.20
2017-04-20T07:34:11.926Z,46.20
2017-04-20T07:35:11.955Z,45.50
2017-04-20T07:36:12.034Z,45.70
2017-04-20T07:37:12.071Z,46.10
2017-04-20T07:38:12.224Z,46.10
2017-04-20T07:39:12.329Z,46.50
2017-04-20T07:40:12.426Z,47.10
2017-04-20T07:41:12.553Z,48.00
2017-04-20T07:42:12.579Z,46.30
2017-04-20T07:43:12.632Z,46.20
2017-04-20T07:44:13.346Z,46.30
2017-04-20T07:45:13.431Z,46.00
2017-04-20T07:46:13.494Z,46.60
2017-04-20T07:47:13.569Z,45.30
2017-04-20T07:48:13.677Z,44.60
2017-04-20T07:49:13.768Z,45.10
2017-04-20T07:50:14.511Z,44.90
2017-04-20T07:51:14.517Z,46.50
2017-04-20T07:52:14.608Z,45.70
2017-04-20T07:53:14.653Z,44.30
2017-04-20T07:54:14.821Z,44.20
2017-04-20T07:55:15.015Z,44.00
2017-04-20T07:56:15.091Z,44.20
2017-04-20T07:57:15.834Z,43.60
2017-04-20T07:58:15.866Z,43.50
2017-04-20T07:59:15.981Z,43.00
2017-04-20T08:00:16.133Z,42.70
2017-04-20T08:01:16.236Z,42.90
2017-04-20T08:02:16.314Z,43.20
2017-04-20T08:03:17.308Z,44.60
2017-04-20T08:04:17.380Z,43.60
2017-04-20T08:05:17.472Z,43.40
2017-04-20T08:06:17.500Z,42.50
2017-04-20T08:07:17.559Z,42.40
2017-04-20T08:08:17.602Z,43.70
2017-04-20T08:09:17.713Z,43.40
2017-04-20T08:10:17.770Z,43.20
2017-04-20T08:11:17.796Z,42.90
2017-04-20T08:12:17.852Z,43.20
2017-04-20T08:13:17.927Z,42.80
2017-04-20T08:14:18.074Z,41.50
2017-04-20T08:15:18.171Z,41.30
2017-04-20T08:16:18.240Z,40.50
2017-04-20T08:17:18.277Z,40.50
2017-04-20T08:18:18.396Z,40.50
2017-04-20T08:19:18.480Z,41.20
2017-04-20T08:20:18.612Z,42.20
2017-04-20T08:21:18.724Z,41.80
2017-04-20T08:22:18.732Z,42.00
2017-04-20T08:23:19.532Z,41.20
2017-04-20T08:24:20.411Z,40.70
2017-04-20T08:25:21.303Z,40.60
2017-04-20T08:26:22.046Z,39.60
2017-04-20T08:27:22.362Z,42.40
2017-04-20T08:28:22.422Z,42.10
2017-04-20T08:29:22.639Z,42.80
2017-04-20T08:30:22.711Z,40.90
2017-04-20T08:31:22.854Z,40.80
2017-04-20T08:32:22.996Z,40.90
2017-04-20T08:33:23.080Z,40.60
2017-04-20T08:34:23.158Z,41.00
2017-04-20T08:35:23.202Z,41.00
2017-04-20T08:36:23.201Z,39.90
2017-04-20T08:37:23.335Z,39.80
2017-04-20T08:38:23.495Z,39.50
2017-04-20T08:39:23.602Z,39.00
2017-04-20T08:40:23.654Z,39.40
2017-04-20T08:41:23.814Z,41.00
2017-04-20T08:42:23.953Z,38.60
2017-04-20T08:43:24.079Z,38.80
2017-04-20T08:44:24.536Z,38.10
2017-04-20T08:45:24.562Z,38.40
2017-04-20T08:46:24.717Z,38.00
2017-04-20T08:47:25.877Z,35.80
2017-04-20T08:48:25.962Z,35.30
2017-04-20T08:49:26.085Z,35.40
2017-04-20T08:50:26.903Z,35.50
2017-04-20T08:51:26.972Z,34.50
2017-04-20T08:52:27.021Z,33.80
2017-04-20T08:53:27.101Z,34.50
2017-04-20T08:54:27.229Z,34.10
2017-04-20T08:55:28.559Z,33.60
2017-04-20T08:56:28.717Z,35.90
2017-04-20T08:57:28.801Z,34.50
2017-04-20T08:58:28.847Z,35.10
2017-04-20T08:59:28.926Z,35.90
2017-04-20T09:00:29.223Z,35.80
2017-04-20T09:01:29.299Z,34.40
2017-04-20T09:02:29.375Z,34.80
2017-04-20T09:03:29.824Z,34.80
2017-04-20T09:04:29.868Z,36.20
2017-04-20T09:05:30.745Z,34.20
2017-04-20T09:06:30.813Z,33.70
2017-04-20T09:07:30.948Z,33.60
2017-04-20T09:08:31.100Z,35.30
2017-04-20T09:09:37.751Z,33.80
2017-04-20T09:10:37.805Z,32.90
2017-04-20T09:11:37.953Z,34.90
2017-04-20T09:12:38.054Z,32.50
2017-04-20T09:13:38.147Z,32.50
2017-04-20T09:14:38.206Z,32.80
2017-04-20T09:15:38.203Z,32.80
2017-04-20T09:16:38.410Z,33.10
2017-04-20T09:17:38.549Z,34.20
2017-04-20T09:18:39.449Z,33.90
2017-04-20T09:19:39.531Z,32.30
2017-04-20T09:20:39.570Z,33.50
2017-04-20T09:21:39.717Z,33.10
2017-04-20T09:22:39.954Z,32.20
2017-04-20T09:23:40.014Z,33.50
2017-04-20T09:24:40.247Z,32.80
2017-04-20T09:25:40.505Z,32.10
2017-04-20T09:26:58.508Z,32.80
2017-04-20T09:27:58.506Z,32.10
2017-04-20T09:28:58.534Z,32.80
2017-04-20T09:29:59.203Z,33.90
2017-04-20T09:31:02.427Z,33.00
2017-04-20T09:32:10.009Z,33.60
2017-04-20T09:33:10.230Z,33.30
2017-04-20T09:34:10.282Z,32.20
2017-04-20T09:35:10.323Z,33.00
2017-04-20T09:36:10.391Z,33.90
2017-04-20T09:37:10.508Z,33.40
2017-04-20T09:38:10.553Z,33.70
2017-04-20T09:39:10.585Z,31.90
2017-04-20T09:40:10.701Z,32.40
2017-04-20T09:41:10.831Z,31.90
2017-04-20T09:42:10.958Z,32.90
2017-04-20T09:43:10.969Z,31.90
2017-04-20T09:44:11.817Z,33.60
2017-04-20T09:45:11.897Z,34.20
2017-04-20T09:46:12.794Z,33.90
2017-04-20T09:47:13.618Z,32.10
2017-04-20T09:48:13.655Z,32.00
2017-04-20T09:49:14.809Z,31.90
2017-04-20T09:50:14.962Z,31.80
2017-04-20T09:51:15.054Z,33.10
2017-04-20T09:52:15.121Z,31.70
2017-04-20T09:53:15.869Z,32.20
2017-04-20T09:54:15.914Z,31.70
2017-04-20T09:55:16.022Z,33.00
2017-04-20T09:56:16.131Z,33.70
2017-04-20T09:57:16.147Z,33.80
2017-04-20T09:58:16.228Z,31.80
2017-04-20T09:59:16.231Z,31.80
2017-04-20T10:00:16.274Z,31.80
2017-04-20T10:01:16.294Z,32.20
2017-04-20T10:02:16.356Z,31.90
2017-04-20T10:03:16.358Z,31.20
2017-04-20T10:04:16.429Z,31.90
2017-04-20T10:05:17.214Z,32.00
2017-04-20T10:06:17.363Z,32.10
2017-04-20T10:07:18.164Z,33.40
2017-04-20T10:08:18.209Z,32.20
2017-04-20T10:09:18.349Z,30.60
2017-04-20T10:10:18.524Z,32.40
2017-04-20T10:11:18.518Z,33.00
2017-04-20T10:12:19.291Z,32.60
2017-04-20T10:13:19.311Z,31.40
2017-04-20T10:14:19.351Z,30.40
2017-04-20T10:15:19.367Z,30.00
2017-04-20T10:16:20.131Z,32.00
2017-04-20T10:17:20.129Z,30.40
2017-04-20T10:18:20.268Z,31.30
2017-04-20T10:19:20.271Z,31.80
2017-04-20T10:20:20.331Z,31.60
2017-04-20T10:21:20.457Z,31.90
2017-04-20T10:22:20.625Z,32.10
2017-04-20T10:23:20.666Z,32.20
2017-04-20T10:24:20.714Z,34.10
2017-04-20T10:25:20.749Z,34.00
2017-04-20T10:26:21.669Z,32.30
2017-04-20T10:27:22.451Z,32.00
2017-04-20T10:28:22.541Z,31.30
2017-04-20T10:29:22.507Z,31.50
2017-04-20T10:30:22.523Z,31.00
2017-04-20T10:31:22.587Z,31.20
2017-04-20T10:32:23.368Z,31.90
2017-04-20T10:33:23.435Z,32.50
2017-04-20T10:34:23.494Z,31.20
2017-04-20T10:35:23.568Z,32.80
2017-04-20T10:36:23.623Z,32.00
2017-04-20T10:37:23.744Z,31.00
2017-04-20T10:38:23.876Z,31.90
2017-04-20T10:39:23.871Z,30.20
2017-04-20T10:40:24.679Z,29.90
2017-04-20T10:41:24.704Z,30.40
2017-04-20T10:42:24.782Z,30.60
2017-04-20T10:43:24.882Z,30.80
2017-04-20T10:44:24.986Z,29.80
2017-04-20T10:45:25.027Z,30.20
2017-04-20T10:46:25.016Z,31.10
2017-04-20T10:47:25.041Z,30.00
2017-04-20T10:48:25.098Z,31.60
2017-04-20T10:49:25.863Z,30.60
2017-04-20T10:50:25.891Z,31.10
2017-04-20T10:51:25.940Z,31.10
2017-04-20T10:52:26.685Z,33.00
2017-04-20T10:53:26.708Z,31.80
2017-04-20T10:54:26.838Z,32.40
2017-04-20T10:55:26.934Z,33.10
2017-04-20T10:56:27.073Z,31.80
2017-04-20T10:57:27.385Z,32.00
2017-04-20T10:58:27.386Z,31.80
2017-04-20T10:59:27.515Z,31.70
2017-04-20T11:00:27.586Z,30.60
2017-04-20T11:01:27.651Z,31.90
2017-04-20T11:02:28.411Z,30.80
2017-04-20T11:03:28.427Z,32.00
2017-04-20T11:04:28.489Z,32.10
2017-04-20T11:05:28.609Z,32.10
2017-04-20T11:06:28.849Z,31.40
2017-04-20T11:07:29.087Z,32.20
2017-04-20T11:08:29.101Z,32.20
2017-04-20T11:09:29.214Z,31.90
2017-04-20T11:10:29.238Z,30.70
2017-04-20T11:11:29.306Z,32.40
2017-04-20T11:12:30.085Z,32.50
2017-04-20T11:13:30.100Z,31.60
2017-04-20T11:14:30.170Z,31.40
2017-04-20T11:15:30.112Z,30.30
2017-04-20T11:16:30.283Z,31.20
2017-04-20T11:17:30.578Z,30.00
2017-04-20T11:18:30.604Z,30.70
2017-04-20T11:19:30.797Z,30.60
2017-04-20T11:20:30.842Z,31.30
2017-04-20T11:21:31.649Z,32.20
2017-04-20T11:22:31.658Z,30.30
2017-04-20T11:23:31.698Z,30.90
2017-04-20T11:24:31.679Z,29.80
2017-04-20T11:25:32.488Z,30.80
2017-04-20T11:26:32.519Z,30.70
2017-04-20T11:27:33.657Z,30.50
2017-04-20T11:28:33.681Z,30.50
2017-04-20T11:29:33.725Z,31.00
2017-04-20T11:30:33.786Z,31.30
2017-04-20T11:31:33.782Z,30.60
2017-04-20T11:32:33.910Z,30.10
2017-04-20T11:33:34.345Z,32.90
2017-04-20T11:34:34.378Z,32.30
2017-04-20T11:35:34.541Z,31.70
2017-04-20T11:36:34.662Z,31.70
2017-04-20T11:37:34.700Z,30.80
2017-04-20T11:38:34.807Z,29.60
2017-04-20T11:39:34.863Z,30.00
2017-04-20T11:40:34.971Z,30.80
2017-04-20T11:41:35.005Z,31.30
2017-04-20T11:42:35.029Z,29.30
2017-04-20T11:43:35.163Z,30.40
2017-04-20T11:44:35.195Z,30.60
2017-04-20T11:45:35.254Z,30.10
2017-04-20T11:46:35.314Z,30.20
2017-04-20T11:47:35.320Z,30.50
2017-04-20T11:48:35.709Z,30.00
2017-04-20T11:49:36.418Z,29.80
2017-04-20T11:50:36.512Z,30.20
2017-04-20T11:51:36.711Z,31.60
2017-04-20T11:52:37.278Z,31.60
2017-04-20T11:53:37.865Z,30.80
2017-04-20T11:54:38.090Z,30.10
2017-04-20T11:55:38.194Z,30.50
2017-04-20T11:56:38.317Z,30.40
2017-04-20T11:57:38.386Z,29.40
2017-04-20T11:58:38.717Z,30.90
2017-04-20T11:59:39.855Z,30.00
2017-04-20T12:00:39.883Z,30.20
2017-04-20T12:01:39.971Z,31.20
2017-04-20T12:02:40.134Z,31.40
2017-04-20T12:03:40.295Z,29.90
2017-04-20T12:04:40.309Z,30.00
2017-04-20T12:05:40.365Z,30.00
2017-04-20T12:06:40.379Z,29.30
2017-04-20T12:07:40.506Z,32.80
2017-04-20T12:08:40.557Z,30.30
2017-04-20T12:09:41.530Z,28.80
2017-04-20T12:10:41.592Z,30.00
2017-04-20T12:11:41.752Z,30.00
2017-04-20T12:12:41.809Z,29.50
2017-04-20T12:13:42.594Z,29.50
2017-04-20T12:14:42.615Z,29.60
2017-04-20T12:15:42.628Z,29.30
2017-04-20T12:16:42.789Z,30.00
2017-04-20T12:17:42.785Z,29.20
2017-04-20T12:18:43.125Z,30.00
2017-04-20T12:19:43.237Z,29.20
2017-04-20T12:20:43.273Z,27.90
2017-04-20T12:21:43.351Z,27.50
2017-04-20T12:22:43.368Z,26.90
2017-04-20T12:23:43.446Z,27.50
2017-04-20T12:24:43.465Z,27.70
2017-04-20T12:25:43.588Z,27.50
2017-04-20T12:26:44.531Z,27.60
2017-04-20T12:27:44.558Z,27.70
2017-04-20T12:28:44.594Z,27.80
2017-04-20T12:29:44.614Z,28.90
2017-04-20T12:30:44.633Z,28.40
2017-04-20T12:31:44.669Z,28.20
2017-04-20T12:32:44.735Z,30.00
2017-04-20T12:33:44.865Z,27.90
2017-04-20T12:34:44.903Z,28.50
2017-04-20T12:35:44.992Z,27.30
2017-04-20T12:36:45.031Z,27.70
2017-04-20T12:37:45.184Z,27.40
2017-04-20T12:38:45.359Z,27.60
2017-04-20T12:39:46.129Z,29.10
2017-04-20T12:40:46.233Z,27.50
2017-04-20T12:41:46.334Z,28.50
2017-04-20T12:42:46.395Z,28.00
2017-04-20T12:43:46.463Z,30.00
2017-04-20T12:44:46.590Z,28.50
2017-04-20T12:45:46.705Z,29.30
2017-04-20T12:46:46.820Z,29.00
2017-04-20T12:47:47.461Z,28.20
2017-04-20T12:48:48.018Z,28.50
2017-04-20T12:49:48.146Z,29.40
2017-04-20T12:50:48.455Z,29.80
2017-04-20T12:51:48.490Z,27.80
2017-04-20T12:52:48.618Z,28.40
2017-04-20T12:53:48.690Z,28.70
2017-04-20T12:54:48.812Z,28.20
2017-04-20T12:55:48.860Z,28.50
2017-04-20T12:56:48.866Z,27.40
2017-04-20T12:57:48.943Z,28.00
2017-04-20T12:58:49.029Z,28.20